createdAt,value
2022-09-06T00:00:27.538Z,5.30
2022-09-06T00:02:55.070Z,5.63
2022-09-06T00:05:22.609Z,5.60
2022-09-06T00:07:49.940Z,5.20
2022-09-06T00:10:17.350Z,5.60
2022-09-06T00:12:44.705Z,5.53
2022-09-06T00:15:12.030Z,5.63
2022-09-06T00:17:39.387Z,6.00
2022-09-06T00:20:09.337Z,6.40
2022-09-06T00:22:37.927Z,5.77
2022-09-06T00:25:06.543Z,6.23
2022-09-06T00:27:34.879Z,6.13
2022-09-06T00:30:04.594Z,5.50
2022-09-06T00:32:32.878Z,5.40
2022-09-06T00:35:00.189Z,5.53
2022-09-06T00:37:27.516Z,6.10
2022-09-06T00:39:54.983Z,5.70
2022-09-06T00:42:22.450Z,5.40
2022-09-06T00:44:50.528Z,5.70
2022-09-06T00:47:18.228Z,6.00
2022-09-06T00:49:50.762Z,5.30
2022-09-06T00:52:19.948Z,5.40
2022-09-06T00:54:49.103Z,5.37
2022-09-06T00:57:17.384Z,5.00
2022-09-06T00:59:46.666Z,5.20
2022-09-06T01:02:14.497Z,5.10
2022-09-06T01:04:44.601Z,4.90
2022-09-06T01:07:47.655Z,5.80
2022-09-06T01:10:30.611Z,6.13
2022-09-06T01:13:09.665Z,5.63
2022-09-06T01:16:00.936Z,5.60
2022-09-06T01:19:01.356Z,5.60
2022-09-06T01:22:07.913Z,6.20
2022-09-06T01:25:18.975Z,6.17
2022-09-06T01:27:58.388Z,6.20
2022-09-06T01:30:25.930Z,6.00
2022-09-06T01:33:34.191Z,6.37
2022-09-06T01:36:04.480Z,6.43
2022-09-06T01:38:31.973Z,6.43
2022-09-06T01:40:59.682Z,6.83
2022-09-06T01:43:33.678Z,6.77
2022-09-06T01:46:30.154Z,6.90
2022-09-06T01:49:23.867Z,6.40
2022-09-06T01:52:12.774Z,6.60
2022-09-06T01:54:51.722Z,6.53
2022-09-06T01:57:43.660Z,7.07
2022-09-06T02:00:14.870Z,6.67
2022-09-06T02:03:10.305Z,6.73
2022-09-06T02:05:43.830Z,6.40
2022-09-06T02:08:16.113Z,6.87
2022-09-06T02:10:50.628Z,7.40
2022-09-06T02:13:20.147Z,6.47
2022-09-06T02:15:56.192Z,7.77
2022-09-06T02:18:30.354Z,6.63
2022-09-06T02:20:59.482Z,6.23
2022-09-06T02:23:35.738Z,6.37
2022-09-06T02:26:15.910Z,7.57
2022-09-06T02:28:43.506Z,7.13
2022-09-06T02:31:16.872Z,7.20
2022-09-06T02:33:46.266Z,7.17
2022-09-06T02:36:15.853Z,8.30
2022-09-06T02:38:44.946Z,7.53
2022-09-06T02:41:16.716Z,7.70
2022-09-06T02:43:44.607Z,7.60
2022-09-06T02:46:12.581Z,7.80
2022-09-06T02:48:39.994Z,7.67
2022-09-06T02:51:09.601Z,7.87
2022-09-06T02:53:36.984Z,7.80
2022-09-06T02:56:04.784Z,7.90
2022-09-06T02:58:32.132Z,8.23
2022-09-06T03:00:59.583Z,7.77
2022-09-06T03:03:28.047Z,8.20
2022-09-06T03:05:55.985Z,8.53
2022-09-06T03:08:33.438Z,8.23
2022-09-06T03:11:01.133Z,7.60
2022-09-06T03:13:28.859Z,8.00
2022-09-06T03:15:58.567Z,8.03
2022-09-06T03:18:27.916Z,7.93
2022-09-06T03:20:56.765Z,8.10
2022-09-06T03:23:27.669Z,8.67
2022-09-06T03:25:55.911Z,7.77
2022-09-06T03:28:23.894Z,7.50
2022-09-06T03:30:52.600Z,7.90
2022-09-06T03:33:21.206Z,7.93
2022-09-06T03:35:53.527Z,8.30
2022-09-06T03:38:21.928Z,7.87
2022-09-06T03:40:50.092Z,7.60
2022-09-06T03:43:18.674Z,8.17
2022-09-06T03:45:48.297Z,7.40
2022-09-06T03:48:16.746Z,7.60
2022-09-06T03:50:54.350Z,8.20
2022-09-06T03:53:23.627Z,8.63
2022-09-06T03:55:53.296Z,8.23
2022-09-06T03:58:23.100Z,9.27
2022-09-06T04:01:06.577Z,9.57
2022-09-06T04:03:35.562Z,8.77
2022-09-06T04:06:03.733Z,8.70
2022-09-06T04:08:31.907Z,8.23
2022-09-06T04:11:00.423Z,8.23
2022-09-06T04:13:29.031Z,8.40
2022-09-06T04:15:56.355Z,8.40
2022-09-06T04:18:24.558Z,8.20
2022-09-06T04:20:54.433Z,9.33
2022-09-06T04:23:23.303Z,8.93
2022-09-06T04:25:53.178Z,9.13
2022-09-06T04:28:22.113Z,8.87
2022-09-06T04:31:01.981Z,8.80
2022-09-06T04:33:33.405Z,7.80
2022-09-06T04:36:02.375Z,9.17
2022-09-06T04:38:31.420Z,9.03
2022-09-06T04:40:58.754Z,9.40
2022-09-06T04:43:26.347Z,8.93
2022-09-06T04:45:53.685Z,10.27
2022-09-06T04:48:21.246Z,10.20
2022-09-06T04:50:48.631Z,9.83
2022-09-06T04:53:16.251Z,10.00
2022-09-06T04:55:43.763Z,9.43
2022-09-06T04:58:11.210Z,9.63
2022-09-06T05:00:38.961Z,9.50
2022-09-06T05:03:06.347Z,9.40
2022-09-06T05:05:34.104Z,9.00
2022-09-06T05:08:01.725Z,9.60
2022-09-06T05:10:29.016Z,9.30
2022-09-06T05:12:56.634Z,8.80
2022-09-06T05:15:24.269Z,8.53
2022-09-06T05:17:51.865Z,9.07
2022-09-06T05:20:19.761Z,9.23
2022-09-06T05:22:56.570Z,9.63
2022-09-06T05:25:23.989Z,9.47
2022-09-06T05:27:51.272Z,9.50
2022-09-06T05:30:19.796Z,9.77
2022-09-06T05:32:47.155Z,9.13
2022-09-06T05:35:14.855Z,8.73
2022-09-06T05:37:42.175Z,10.13
2022-09-06T05:40:10.100Z,9.17
2022-09-06T05:42:37.537Z,8.97
2022-09-06T05:45:06.891Z,8.50
2022-09-06T05:47:35.451Z,7.70
2022-09-06T05:50:03.690Z,9.20
2022-09-06T05:52:31.153Z,8.47
2022-09-06T05:55:02.945Z,8.50
2022-09-06T05:57:30.235Z,7.97
2022-09-06T05:59:57.887Z,8.17
2022-09-06T06:02:25.713Z,8.80
2022-09-06T06:04:54.544Z,9.20
2022-09-06T06:07:22.040Z,8.93
2022-09-06T06:09:49.460Z,9.27
2022-09-06T06:12:16.891Z,10.10
2022-09-06T06:14:44.302Z,9.43
2022-09-06T06:17:11.598Z,8.53
2022-09-06T06:19:40.263Z,9.17
2022-09-06T06:22:07.699Z,8.43
2022-09-06T06:24:35.333Z,8.53
2022-09-06T06:27:02.791Z,7.70
2022-09-06T06:29:30.182Z,8.00
2022-09-06T06:31:57.703Z,7.90
2022-09-06T06:34:25.057Z,7.20
2022-09-06T06:36:52.772Z,7.10
2022-09-06T06:39:20.147Z,7.77
2022-09-06T06:41:49.206Z,7.70
2022-09-06T06:44:32.449Z,7.53
2022-09-06T06:47:01.981Z,7.23
2022-09-06T06:49:29.976Z,7.63
2022-09-06T06:51:57.473Z,7.07
2022-09-06T06:54:24.825Z,7.67
2022-09-06T06:56:52.162Z,7.50
2022-09-06T06:59:20.677Z,7.47
2022-09-06T07:01:49.831Z,7.63
2022-09-06T07:04:17.481Z,7.80
2022-09-06T07:12:30.719Z,7.37
2022-09-06T07:14:58.378Z,7.50
2022-09-06T07:17:25.948Z,8.77
2022-09-06T07:22:41.232Z,7.47
2022-09-06T07:25:09.737Z,7.87
2022-09-06T07:27:52.372Z,7.30
2022-09-06T07:30:20.389Z,6.87
2022-09-06T07:32:48.207Z,6.90
2022-09-06T07:35:15.865Z,6.93
2022-09-06T07:37:43.173Z,7.23
2022-09-06T07:40:11.069Z,6.73
2022-09-06T07:42:38.514Z,7.23
2022-09-06T07:45:06.360Z,8.07
2022-09-06T07:53:14.007Z,7.53
2022-09-06T07:55:45.227Z,7.00
2022-09-06T07:58:12.633Z,7.17
2022-09-06T08:00:41.208Z,7.63
2022-09-06T08:03:08.986Z,7.23
2022-09-06T08:11:13.412Z,6.20
2022-09-06T08:13:41.667Z,6.57
2022-09-06T08:16:11.539Z,6.40
2022-09-06T08:18:39.459Z,8.53
2022-09-06T08:21:12.815Z,6.93
2022-09-06T08:23:45.105Z,6.40
2022-09-06T08:26:12.600Z,5.53
2022-09-06T08:28:39.953Z,5.80
2022-09-06T08:31:12.390Z,5.53
2022-09-06T08:33:55.954Z,5.70
2022-09-06T08:36:23.938Z,6.10
2022-09-06T08:38:51.203Z,5.73
2022-09-06T08:41:27.597Z,5.40
2022-09-06T08:47:00.255Z,6.00
2022-09-06T08:49:34.512Z,5.53
2022-09-06T08:52:20.542Z,5.50
2022-09-06T08:54:56.546Z,6.50
2022-09-06T08:57:55.164Z,5.50
2022-09-06T09:00:23.184Z,5.90
2022-09-06T09:03:07.931Z,5.40
2022-09-06T09:05:40.624Z,6.00
2022-09-06T09:08:29.565Z,5.43
2022-09-06T09:11:02.321Z,5.63
2022-09-06T09:14:10.339Z,5.43
2022-09-06T09:16:37.756Z,5.37
2022-09-06T09:19:06.145Z,6.00
2022-09-06T09:21:37.181Z,5.90
2022-09-06T09:24:08.012Z,6.20
2022-09-06T09:27:05.763Z,6.30
2022-09-06T09:29:36.257Z,6.20
2022-09-06T09:32:03.911Z,6.20
2022-09-06T09:34:34.045Z,5.60
2022-09-06T09:40:06.885Z,6.27
2022-09-06T09:42:36.760Z,6.50
2022-09-06T09:45:25.629Z,7.10
2022-09-06T09:47:53.485Z,6.90
2022-09-06T09:50:33.429Z,7.00
2022-09-06T09:53:12.040Z,6.70
2022-09-06T09:55:39.967Z,6.30
2022-09-06T09:58:31.569Z,6.47
2022-09-06T10:01:21.827Z,6.60
2022-09-06T10:09:39.548Z,6.23
2022-09-06T10:12:07.407Z,6.70
2022-09-06T10:14:46.904Z,6.70
2022-09-06T10:17:50.229Z,6.40
2022-09-06T10:20:18.112Z,6.20
2022-09-06T10:22:56.008Z,5.97
2022-09-06T10:25:51.429Z,6.43
2022-09-06T10:28:29.603Z,5.90
2022-09-06T10:31:06.054Z,5.93
2022-09-06T10:33:54.323Z,6.63
2022-09-06T10:36:37.839Z,6.07
2022-09-06T10:39:37.302Z,5.60
2022-09-06T10:42:18.858Z,5.83
2022-09-06T10:45:02.977Z,6.10
2022-09-06T10:47:54.617Z,6.10
2022-09-06T10:50:28.910Z,6.43
2022-09-06T10:53:05.047Z,6.63
2022-09-06T10:55:32.870Z,5.40
2022-09-06T10:58:20.626Z,5.40
2022-09-06T11:00:50.370Z,5.80
2022-09-06T11:06:09.881Z,7.80
2022-09-06T11:08:46.514Z,12.33
2022-09-06T11:11:21.533Z,8.00
2022-09-06T11:13:49.191Z,5.90
2022-09-06T11:16:28.909Z,5.53
2022-09-06T11:19:04.696Z,5.07
2022-09-06T11:21:40.598Z,5.30
2022-09-06T11:24:15.667Z,5.57
2022-09-06T11:27:02.640Z,13.23
2022-09-06T11:29:32.279Z,5.90
2022-09-06T11:32:18.105Z,5.03
2022-09-06T11:34:57.712Z,7.30
2022-09-06T11:37:32.977Z,7.77
2022-09-06T11:40:27.175Z,5.23
2022-09-06T11:42:55.616Z,5.20
2022-09-06T11:45:52.457Z,5.03
2022-09-06T11:48:26.743Z,4.77
2022-09-06T11:50:54.059Z,5.17
2022-09-06T11:53:24.902Z,5.00
2022-09-06T11:56:12.255Z,22.27
2022-09-06T11:58:49.737Z,6.55
2022-09-06T12:01:18.816Z,6.03
2022-09-06T12:04:05.912Z,7.03
2022-09-06T12:06:40.760Z,4.80
2022-09-06T12:09:28.272Z,5.37
2022-09-06T12:11:56.849Z,6.30
2022-09-06T12:14:27.127Z,5.32
2022-09-06T12:17:00.712Z,5.13
2022-09-06T12:20:11.208Z,5.15
2022-09-06T12:22:41.331Z,5.30
2022-09-06T12:25:21.088Z,5.17
2022-09-06T12:27:57.848Z,4.80
2022-09-06T12:30:37.628Z,5.17
2022-09-06T12:33:16.771Z,4.83
2022-09-06T12:35:59.935Z,5.40
2022-09-06T12:38:28.732Z,5.20
2022-09-06T12:40:59.085Z,5.73
2022-09-06T12:43:27.227Z,4.88
2022-09-06T12:45:54.660Z,5.33
2022-09-06T12:48:41.217Z,5.63
2022-09-06T12:51:20.235Z,6.00
2022-09-06T12:54:01.379Z,6.00
2022-09-06T12:56:33.943Z,5.93
2022-09-06T12:59:14.100Z,5.00
2022-09-06T13:01:47.963Z,5.20
2022-09-06T13:04:42.909Z,5.03
2022-09-06T13:07:14.383Z,6.43
2022-09-06T13:09:44.929Z,5.55
2022-09-06T13:12:26.341Z,5.32
2022-09-06T13:15:00.297Z,5.20
2022-09-06T13:17:29.985Z,5.25
2022-09-06T13:20:02.424Z,6.10
2022-09-06T13:22:47.991Z,4.78
2022-09-06T13:25:20.487Z,5.30
2022-09-06T13:27:51.069Z,5.60
2022-09-06T13:30:30.549Z,4.78
2022-09-06T13:32:58.098Z,5.13
2022-09-06T13:35:29.401Z,5.75
2022-09-06T13:38:18.892Z,4.90
2022-09-06T13:41:10.641Z,5.20
2022-09-06T13:43:45.831Z,5.20
2022-09-06T13:46:13.650Z,6.10
2022-09-06T13:48:42.986Z,5.47
2022-09-06T13:51:10.548Z,4.87
2022-09-06T13:53:37.828Z,5.10
2022-09-06T13:56:08.866Z,5.13
2022-09-06T13:58:37.032Z,5.63
2022-09-06T14:01:10.469Z,5.03
2022-09-06T14:03:40.981Z,4.93
2022-09-06T14:06:09.242Z,5.20
2022-09-06T14:08:56.262Z,5.17
2022-09-06T14:11:25.592Z,5.47
2022-09-06T14:13:52.962Z,5.30
2022-09-06T14:16:20.667Z,5.30
2022-09-06T14:18:48.104Z,5.20
2022-09-06T14:21:15.569Z,5.30
2022-09-06T14:23:42.864Z,5.23
2022-09-06T14:26:10.576Z,4.87
2022-09-06T14:28:37.859Z,5.20
2022-09-06T14:31:22.308Z,4.87
2022-09-06T14:33:49.671Z,4.67
2022-09-06T14:36:19.966Z,4.53
2022-09-06T14:38:48.083Z,4.50
2022-09-06T14:41:17.671Z,5.33
2022-09-06T14:43:52.750Z,4.90
2022-09-06T14:46:22.037Z,4.67
2022-09-06T14:48:56.220Z,4.27
2022-09-06T14:51:24.114Z,4.40
2022-09-06T14:53:54.802Z,4.00
2022-09-06T14:56:23.044Z,4.50
2022-09-06T14:58:50.521Z,4.70
2022-09-06T15:01:23.327Z,4.70
2022-09-06T15:04:02.953Z,4.67
2022-09-06T15:06:33.098Z,4.67
2022-09-06T15:09:00.586Z,4.50
2022-09-06T15:11:34.408Z,4.57
2022-09-06T15:14:04.214Z,4.30
2022-09-06T15:16:32.837Z,4.97
2022-09-06T15:19:01.175Z,4.50
2022-09-06T15:21:28.873Z,4.97
2022-09-06T15:23:57.002Z,4.20
2022-09-06T15:26:24.365Z,4.00
2022-09-06T15:28:52.290Z,4.37
2022-09-06T15:31:20.317Z,4.47
2022-09-06T15:33:48.880Z,4.27
2022-09-06T15:36:16.854Z,4.70
2022-09-06T15:38:49.681Z,4.63
2022-09-06T15:41:20.239Z,4.33
2022-09-06T15:43:48.992Z,4.40
2022-09-06T15:46:21.251Z,4.07
2022-09-06T15:48:50.881Z,4.10
2022-09-06T15:51:19.929Z,4.30
2022-09-06T15:53:47.412Z,4.27
2022-09-06T15:56:16.753Z,4.10
2022-09-06T15:58:47.810Z,4.30
2022-09-06T16:01:18.202Z,4.83
2022-09-06T16:04:03.616Z,4.80
2022-09-06T16:06:44.249Z,4.90
2022-09-06T16:09:17.733Z,4.77
2022-09-06T16:11:45.269Z,4.00
2022-09-06T16:14:14.498Z,3.57
2022-09-06T16:16:43.395Z,3.33
2022-09-06T16:19:12.676Z,3.47
2022-09-06T16:21:42.109Z,3.30
2022-09-06T16:24:12.091Z,3.10
2022-09-06T16:26:42.394Z,3.13
2022-09-06T16:29:14.664Z,3.20
2022-09-06T16:31:42.063Z,3.70
2022-09-06T16:34:11.588Z,3.00
2022-09-06T16:36:39.358Z,3.37
2022-09-06T16:39:08.202Z,3.17
2022-09-06T16:41:44.158Z,3.30
2022-09-06T16:44:16.857Z,3.60
2022-09-06T16:46:46.675Z,3.43
2022-09-06T16:49:17.023Z,3.33
2022-09-06T16:51:45.112Z,3.40
2022-09-06T16:54:14.019Z,3.30
2022-09-06T16:56:41.754Z,3.80
2022-09-06T16:59:10.543Z,3.53
2022-09-06T17:01:42.498Z,3.17
2022-09-06T17:04:10.512Z,3.60
2022-09-06T17:06:56.105Z,6.50
2022-09-06T17:09:23.482Z,3.63
2022-09-06T17:11:50.950Z,3.20
2022-09-06T17:14:18.988Z,3.53
2022-09-06T17:17:04.741Z,3.20
2022-09-06T17:19:37.118Z,3.30
2022-09-06T17:22:05.254Z,3.20
2022-09-06T17:24:32.939Z,3.07
2022-09-06T17:27:00.287Z,3.40
2022-09-06T17:29:28.173Z,3.00
2022-09-06T17:31:56.048Z,2.80
2022-09-06T17:34:23.457Z,2.80
2022-09-06T17:36:50.866Z,2.80
2022-09-06T17:39:23.394Z,2.77
2022-09-06T17:41:53.551Z,2.70
2022-09-06T17:44:25.173Z,2.90
2022-09-06T17:49:41.694Z,3.10
2022-09-06T17:52:09.740Z,3.10
2022-09-06T17:54:37.186Z,3.00
2022-09-06T17:57:04.770Z,3.73
2022-09-06T17:59:35.448Z,3.20
2022-09-06T18:02:04.289Z,3.20
2022-09-06T18:04:31.659Z,2.83
2022-09-06T18:06:59.054Z,3.30
2022-09-06T18:09:26.721Z,3.47
2022-09-06T18:11:54.190Z,3.40
2022-09-06T18:14:21.553Z,3.67
2022-09-06T18:16:52.620Z,3.20
2022-09-06T18:19:21.364Z,3.30
2022-09-06T18:21:48.962Z,3.40
2022-09-06T18:24:16.441Z,3.30
2022-09-06T18:26:44.656Z,3.97
2022-09-06T18:29:18.079Z,3.20
2022-09-06T18:31:45.823Z,3.20
2022-09-06T18:34:13.656Z,2.80
2022-09-06T18:36:41.095Z,3.07
2022-09-06T18:39:08.692Z,3.00
2022-09-06T18:41:54.712Z,3.07
2022-09-06T18:44:22.393Z,3.10
2022-09-06T18:46:49.970Z,2.80
2022-09-06T18:49:17.597Z,3.13
2022-09-06T18:51:45.591Z,3.27
2022-09-06T18:54:13.589Z,2.80
2022-09-06T18:56:42.121Z,3.27
2022-09-06T18:59:11.130Z,3.17
2022-09-06T19:01:38.577Z,3.20
2022-09-06T19:04:07.196Z,2.80
2022-09-06T19:06:36.320Z,3.20
2022-09-06T19:09:10.073Z,3.53
2022-09-06T19:11:38.115Z,3.20
2022-09-06T19:14:05.820Z,3.50
2022-09-06T19:16:33.621Z,3.60
2022-09-06T19:19:03.327Z,3.40
2022-09-06T19:21:30.687Z,3.27
2022-09-06T19:24:01.237Z,3.50
2022-09-06T19:26:31.583Z,3.57
2022-09-06T19:29:02.119Z,3.57
2022-09-06T19:31:32.307Z,3.47
2022-09-06T19:33:59.978Z,3.13
2022-09-06T19:36:29.392Z,3.63
2022-09-06T19:39:03.428Z,4.13
2022-09-06T19:41:34.605Z,3.70
2022-09-06T19:44:05.371Z,3.57
2022-09-06T19:46:33.546Z,4.33
2022-09-06T19:49:02.319Z,4.23
2022-09-06T19:51:30.300Z,4.10
2022-09-06T19:53:58.049Z,4.30
2022-09-06T19:56:30.155Z,4.40
2022-09-06T19:58:59.547Z,4.03
2022-09-06T20:01:29.567Z,4.00
2022-09-06T20:03:58.799Z,4.30
2022-09-06T20:06:26.991Z,4.37
2022-09-06T20:08:56.459Z,3.83
2022-09-06T20:11:26.871Z,3.43
2022-09-06T20:13:54.758Z,4.07
2022-09-06T20:16:24.804Z,3.80
2022-09-06T20:18:55.772Z,4.77
2022-09-06T20:21:23.145Z,4.40
2022-09-06T20:23:52.103Z,4.63
2022-09-06T20:26:20.756Z,4.03
2022-09-06T20:28:48.794Z,4.23
2022-09-06T20:31:18.294Z,4.23
2022-09-06T20:33:49.684Z,4.07
2022-09-06T20:36:18.449Z,4.03
2022-09-06T20:38:47.267Z,4.37
2022-09-06T20:41:17.065Z,4.07
2022-09-06T20:43:44.868Z,4.47
2022-09-06T20:46:18.013Z,4.40
2022-09-06T20:48:46.697Z,4.90
2022-09-06T20:51:19.644Z,4.67
2022-09-06T20:53:50.989Z,5.17
2022-09-06T20:56:21.244Z,4.20
2022-09-06T20:58:54.282Z,4.37
2022-09-06T21:01:24.630Z,4.40
2022-09-06T21:03:53.927Z,4.47
2022-09-06T21:06:22.448Z,4.30
2022-09-06T21:08:50.690Z,4.20
2022-09-06T21:11:18.899Z,4.27
2022-09-06T21:13:51.054Z,3.80
2022-09-06T21:16:24.390Z,4.20
2022-09-06T21:18:58.304Z,3.80
2022-09-06T21:21:27.707Z,4.20
2022-09-06T21:23:55.399Z,3.90
2022-09-06T21:26:23.195Z,4.40
2022-09-06T21:28:50.739Z,4.57
2022-09-06T21:31:23.620Z,4.37
2022-09-06T21:33:56.330Z,4.43
2022-09-06T21:36:27.527Z,4.53
2022-09-06T21:38:57.146Z,3.97
2022-09-06T21:41:24.880Z,3.90
2022-09-06T21:43:53.874Z,3.90
2022-09-06T21:46:23.029Z,3.83
2022-09-06T21:48:52.826Z,3.83
2022-09-06T21:51:27.227Z,4.20
2022-09-06T21:53:55.955Z,3.80
2022-09-06T21:56:24.108Z,4.10
2022-09-06T21:58:55.421Z,3.83
2022-09-06T22:01:24.296Z,4.03
2022-09-06T22:03:52.007Z,4.10
2022-09-06T22:06:22.046Z,3.97
2022-09-06T22:08:49.695Z,3.83
2022-09-06T22:11:19.658Z,3.63
2022-09-06T22:13:48.267Z,4.20
2022-09-06T22:16:18.763Z,4.00
2022-09-06T22:18:46.921Z,4.00
2022-09-06T22:21:21.142Z,4.03
2022-09-06T22:23:55.528Z,4.20
2022-09-06T22:26:25.248Z,3.83
2022-09-06T22:28:55.327Z,4.07
2022-09-06T22:31:23.873Z,4.13
2022-09-06T22:33:51.385Z,4.50
2022-09-06T22:36:19.284Z,4.93
2022-09-06T22:38:46.718Z,4.60
2022-09-06T22:41:14.299Z,4.53
2022-09-06T22:43:41.554Z,4.47
2022-09-06T22:46:10.624Z,4.57
2022-09-06T22:48:38.442Z,4.30
2022-09-06T22:51:08.850Z,4.60
2022-09-06T22:53:36.202Z,3.93
2022-09-06T22:56:04.383Z,4.30
2022-09-06T22:58:32.772Z,4.40
2022-09-06T23:01:09.681Z,4.43
2022-09-06T23:03:37.914Z,4.73
2022-09-06T23:06:05.553Z,4.13
2022-09-06T23:08:35.491Z,4.30
2022-09-06T23:11:08.932Z,4.80
2022-09-06T23:13:36.955Z,5.07
2022-09-06T23:16:09.095Z,5.00
2022-09-06T23:18:36.478Z,4.60
2022-09-06T23:21:23.846Z,5.00
2022-09-06T23:23:52.738Z,4.63
2022-09-06T23:26:22.330Z,4.50
2022-09-06T23:28:51.823Z,4.70
2022-09-06T23:31:19.574Z,4.20
2022-09-06T23:33:46.968Z,4.50
2022-09-06T23:36:14.853Z,4.60
2022-09-06T23:38:43.194Z,4.33
2022-09-06T23:41:11.391Z,4.80
2022-09-06T23:43:40.589Z,5.10
2022-09-06T23:46:09.312Z,4.57
2022-09-06T23:48:36.782Z,5.33
2022-09-06T23:51:04.848Z,4.20
2022-09-06T23:53:32.902Z,4.93
2022-09-06T23:56:00.808Z,4.83
2022-09-06T23:58:28.564Z,4.87
